Fairfield Pond, Vermont
Current Conditions -  °F | °C
As of 8:55 PM on Friday 24 Oct 2014 (Local Time) from KFSO Reporting Station
Scattered Clouds Scattered Clouds  
Wind Chill: 39°   Ceiling: Unl
Heat Index: 39°   Visibility: 10mi
Dew Point: 38°   Wind: 0mph
Humidity: 97%   Direction: NA
Pressure: 29.84"   Gusts: NA
Location:  44.8776°N, 72.9201°W
Report Text: KFSO 250055Z AUTO 00000KT 10SM SCT110 04/03 A2984 RMK AO2 T00370033
Loading
Personal Weather Stations






























Interactive Weather Map
Tropical Storm Tracking
New forecast layout! Learn more

10-Day Weather Forecast

Advertisements
Track Severe Weather on mobile